sensor_id;sensor_type;location;lat;lon;timestamp;temperature;humidity
580;DHT22;276;48.392;9.950;2023-04-24T00:01:32;13.40;99.90
580;DHT22;276;48.392;9.950;2023-04-24T00:03:59;13.40;99.90
580;DHT22;276;48.392;9.950;2023-04-24T00:06:29;13.40;99.90
580;DHT22;276;48.392;9.950;2023-04-24T00:08:59;13.30;99.90
580;DHT22;276;48.392;9.950;2023-04-24T00:11:25;13.30;99.90
580;DHT22;276;48.392;9.950;2023-04-24T00:13:56;13.30;99.90
580;DHT22;276;48.392;9.950;2023-04-24T00:16:22;13.30;99.90
580;DHT22;276;48.392;9.950;2023-04-24T00:18:48;13.30;99.90
580;DHT22;276;48.392;9.950;2023-04-24T00:21:18;13.30;99.90
580;DHT22;276;48.392;9.950;2023-04-24T00:23:44;13.30;99.90
580;DHT22;276;48.392;9.950;2023-04-24T00:26:14;13.30;99.90
580;DHT22;276;48.392;9.950;2023-04-24T00:28:42;13.30;99.90
580;DHT22;276;48.392;9.950;2023-04-24T00:31:10;13.30;99.90
580;DHT22;276;48.392;9.950;2023-04-24T00:33:36;13.20;99.90
580;DHT22;276;48.392;9.950;2023-04-24T00:36:03;13.20;99.90
580;DHT22;276;48.392;9.950;2023-04-24T00:38:32;13.20;99.90
580;DHT22;276;48.392;9.950;2023-04-24T00:40:58;13.20;99.90
580;DHT22;276;48.392;9.950;2023-04-24T00:43:26;13.20;99.90
580;DHT22;276;48.392;9.950;2023-04-24T00:45:54;13.20;99.90
580;DHT22;276;48.392;9.950;2023-04-24T00:48:23;13.10;99.90
580;DHT22;276;48.392;9.950;2023-04-24T00:50:49;13.00;99.90
580;DHT22;276;48.392;9.950;2023-04-24T00:53:17;13.10;99.90
580;DHT22;276;48.392;9.950;2023-04-24T00:55:48;13.20;99.90
580;DHT22;276;48.392;9.950;2023-04-24T00:58:16;13.10;99.90
580;DHT22;276;48.392;9.950;2023-04-24T01:00:42;13.10;99.90
580;DHT22;276;48.392;9.950;2023-04-24T01:03:11;13.20;99.90
580;DHT22;276;48.392;9.950;2023-04-24T01:05:41;13.20;99.90
580;DHT22;276;48.392;9.950;2023-04-24T01:08:07;13.20;99.90
580;DHT22;276;48.392;9.950;2023-04-24T01:10:33;13.30;99.90
580;DHT22;276;48.392;9.950;2023-04-24T01:13:00;13.30;99.90
580;DHT22;276;48.392;9.950;2023-04-24T01:15:28;13.40;99.90
580;DHT22;276;48.392;9.950;2023-04-24T01:17:53;13.30;99.90
580;DHT22;276;48.392;9.950;2023-04-24T01:20:19;13.20;99.90
580;DHT22;276;48.392;9.950;2023-04-24T01:22:48;13.20;99.90
580;DHT22;276;48.392;9.950;2023-04-24T01:25:14;13.20;99.90
580;DHT22;276;48.392;9.950;2023-04-24T01:27:40;13.10;99.90
580;DHT22;276;48.392;9.950;2023-04-24T01:30:08;13.10;99.90
580;DHT22;276;48.392;9.950;2023-04-24T01:32:37;13.20;99.90
580;DHT22;276;48.392;9.950;2023-04-24T01:35:03;13.20;99.90
580;DHT22;276;48.392;9.950;2023-04-24T01:37:29;13.20;99.90
580;DHT22;276;48.392;9.950;2023-04-24T01:39:56;13.30;99.90
580;DHT22;276;48.392;9.950;2023-04-24T01:42:22;13.30;99.90
580;DHT22;276;48.392;9.950;2023-04-24T01:44:48;13.40;99.90
580;DHT22;276;48.392;9.950;2023-04-24T01:47:14;13.30;99.90
580;DHT22;276;48.392;9.950;2023-04-24T01:52:06;13.30;99.90
580;DHT22;276;48.392;9.950;2023-04-24T01:54:34;13.20;99.90
580;DHT22;276;48.392;9.950;2023-04-24T01:57:00;13.20;99.90
580;DHT22;276;48.392;9.950;2023-04-24T01:59:28;13.20;99.90
580;DHT22;276;48.392;9.950;2023-04-24T02:01:53;13.20;99.90
580;DHT22;276;48.392;9.950;2023-04-24T02:04:21;13.20;99.90
580;DHT22;276;48.392;9.950;2023-04-24T02:06:47;13.20;99.90
580;DHT22;276;48.392;9.950;2023-04-24T02:09:15;13.20;99.90
580;DHT22;276;48.392;9.950;2023-04-24T02:11:43;13.20;99.90
580;DHT22;276;48.392;9.950;2023-04-24T02:14:08;13.20;99.90
580;DHT22;276;48.392;9.950;2023-04-24T02:16:34;13.10;99.90
580;DHT22;276;48.392;9.950;2023-04-24T02:19:03;13.20;99.90
580;DHT22;276;48.392;9.950;2023-04-24T02:21:29;13.20;99.90
580;DHT22;276;48.392;9.950;2023-04-24T02:23:56;13.10;99.90
580;DHT22;276;48.392;9.950;2023-04-24T02:26:24;13.20;99.90
580;DHT22;276;48.392;9.950;2023-04-24T02:28:50;13.10;99.90
580;DHT22;276;48.392;9.950;2023-04-24T02:31:16;13.10;99.90
580;DHT22;276;48.392;9.950;2023-04-24T02:33:41;13.10;99.90
580;DHT22;276;48.392;9.950;2023-04-24T02:36:09;13.10;99.90
580;DHT22;276;48.392;9.950;2023-04-24T02:38:35;13.10;99.90
580;DHT22;276;48.392;9.950;2023-04-24T02:41:00;13.10;99.90
580;DHT22;276;48.392;9.950;2023-04-24T02:43:29;13.10;99.90
580;DHT22;276;48.392;9.950;2023-04-24T02:45:55;13.10;99.90
580;DHT22;276;48.392;9.950;2023-04-24T02:48:21;13.10;99.90
580;DHT22;276;48.392;9.950;2023-04-24T02:50:46;13.00;99.90
580;DHT22;276;48.392;9.950;2023-04-24T02:53:12;13.00;99.90
580;DHT22;276;48.392;9.950;2023-04-24T02:55:38;13.00;99.90
580;DHT22;276;48.392;9.950;2023-04-24T02:58:04;13.00;99.90
580;DHT22;276;48.392;9.950;2023-04-24T03:00:32;13.00;99.90
580;DHT22;276;48.392;9.950;2023-04-24T03:02:57;12.90;99.90
580;DHT22;276;48.392;9.950;2023-04-24T03:05:23;12.90;99.90
580;DHT22;276;48.392;9.950;2023-04-24T03:07:52;12.90;99.90
580;DHT22;276;48.392;9.950;2023-04-24T03:10:18;12.90;99.90
580;DHT22;276;48.392;9.950;2023-04-24T03:12:44;12.90;99.90
580;DHT22;276;48.392;9.950;2023-04-24T03:15:11;12.90;99.90
580;DHT22;276;48.392;9.950;2023-04-24T03:17:40;12.90;99.90
580;DHT22;276;48.392;9.950;2023-04-24T03:20:06;12.90;99.90
580;DHT22;276;48.392;9.950;2023-04-24T03:22:33;12.90;99.90
580;DHT22;276;48.392;9.950;2023-04-24T03:24:59;12.90;99.90
580;DHT22;276;48.392;9.950;2023-04-24T03:27:25;13.00;99.90
580;DHT22;276;48.392;9.950;2023-04-24T03:29:55;13.00;99.90
580;DHT22;276;48.392;9.950;2023-04-24T03:32:24;12.90;99.90
580;DHT22;276;48.392;9.950;2023-04-24T03:34:50;12.90;99.90
580;DHT22;276;48.392;9.950;2023-04-24T03:37:20;13.00;99.90
580;DHT22;276;48.392;9.950;2023-04-24T03:39:46;13.00;99.90
580;DHT22;276;48.392;9.950;2023-04-24T03:42:11;13.00;99.90
580;DHT22;276;48.392;9.950;2023-04-24T03:44:37;13.00;99.90
580;DHT22;276;48.392;9.950;2023-04-24T03:47:03;13.10;99.90
580;DHT22;276;48.392;9.950;2023-04-24T03:49:28;13.00;99.90
580;DHT22;276;48.392;9.950;2023-04-24T03:51:56;13.00;99.90
580;DHT22;276;48.392;9.950;2023-04-24T03:54:21;13.00;99.90
580;DHT22;276;48.392;9.950;2023-04-24T03:56:47;13.00;99.90
580;DHT22;276;48.392;9.950;2023-04-24T03:59:13;13.00;99.90
580;DHT22;276;48.392;9.950;2023-04-24T04:01:38;13.00;99.90
580;DHT22;276;48.392;9.950;2023-04-24T04:04:06;12.90;99.90
580;DHT22;276;48.392;9.950;2023-04-24T04:06:33;12.90;99.90
580;DHT22;276;48.392;9.950;2023-04-24T04:09:03;12.90;99.90
580;DHT22;276;48.392;9.950;2023-04-24T04:11:32;13.00;99.90
580;DHT22;276;48.392;9.950;2023-04-24T04:13:57;13.00;99.90
580;DHT22;276;48.392;9.950;2023-04-24T04:16:23;13.00;99.90
580;DHT22;276;48.392;9.950;2023-04-24T04:18:52;13.10;99.90
580;DHT22;276;48.392;9.950;2023-04-24T04:21:17;13.10;99.90
580;DHT22;276;48.392;9.950;2023-04-24T04:23:45;13.10;99.90
580;DHT22;276;48.392;9.950;2023-04-24T04:26:11;13.10;99.90
580;DHT22;276;48.392;9.950;2023-04-24T04:28:38;13.10;99.90
580;DHT22;276;48.392;9.950;2023-04-24T04:31:04;13.10;99.90
580;DHT22;276;48.392;9.950;2023-04-24T04:33:32;13.10;99.90
580;DHT22;276;48.392;9.950;2023-04-24T04:35:58;13.00;99.90
580;DHT22;276;48.392;9.950;2023-04-24T04:38:26;13.10;99.90
580;DHT22;276;48.392;9.950;2023-04-24T04:40:55;13.10;99.90
580;DHT22;276;48.392;9.950;2023-04-24T04:43:23;13.20;99.90
580;DHT22;276;48.392;9.950;2023-04-24T04:45:49;13.20;99.90
580;DHT22;276;48.392;9.950;2023-04-24T04:48:17;13.10;99.90
580;DHT22;276;48.392;9.950;2023-04-24T04:50:46;13.10;99.90
580;DHT22;276;48.392;9.950;2023-04-24T04:53:11;13.00;99.90
580;DHT22;276;48.392;9.950;2023-04-24T04:55:40;13.00;99.90
580;DHT22;276;48.392;9.950;2023-04-24T04:58:05;13.00;99.90
580;DHT22;276;48.392;9.950;2023-04-24T05:00:33;12.90;99.90
580;DHT22;276;48.392;9.950;2023-04-24T05:03:02;12.90;99.90
580;DHT22;276;48.392;9.950;2023-04-24T05:05:28;12.90;99.90
580;DHT22;276;48.392;9.950;2023-04-24T05:07:59;12.80;99.90
580;DHT22;276;48.392;9.950;2023-04-24T05:10:24;12.80;99.90
580;DHT22;276;48.392;9.950;2023-04-24T05:12:53;12.80;99.90
580;DHT22;276;48.392;9.950;2023-04-24T05:15:18;12.80;99.90
580;DHT22;276;48.392;9.950;2023-04-24T05:17:44;12.80;99.90
580;DHT22;276;48.392;9.950;2023-04-24T05:20:10;12.80;99.90
580;DHT22;276;48.392;9.950;2023-04-24T05:22:38;12.80;99.90
580;DHT22;276;48.392;9.950;2023-04-24T05:25:03;12.80;99.90
580;DHT22;276;48.392;9.950;2023-04-24T05:27:33;12.90;99.90
580;DHT22;276;48.392;9.950;2023-04-24T05:30:01;12.80;99.90
580;DHT22;276;48.392;9.950;2023-04-24T05:32:26;12.80;99.90
580;DHT22;276;48.392;9.950;2023-04-24T05:34:52;12.70;99.90
580;DHT22;276;48.392;9.950;2023-04-24T05:37:18;12.70;99.90
580;DHT22;276;48.392;9.950;2023-04-24T05:39:43;12.70;99.90
580;DHT22;276;48.392;9.950;2023-04-24T05:42:13;12.70;99.90
580;DHT22;276;48.392;9.950;2023-04-24T05:44:39;12.70;99.90
580;DHT22;276;48.392;9.950;2023-04-24T05:47:04;12.60;99.90
580;DHT22;276;48.392;9.950;2023-04-24T05:49:30;12.70;99.90
580;DHT22;276;48.392;9.950;2023-04-24T05:51:56;12.60;99.90
580;DHT22;276;48.392;9.950;2023-04-24T05:54:24;12.70;99.90
580;DHT22;276;48.392;9.950;2023-04-24T05:56:54;12.60;99.90
580;DHT22;276;48.392;9.950;2023-04-24T05:59:25;12.70;99.90
580;DHT22;276;48.392;9.950;2023-04-24T06:01:53;12.70;99.90
580;DHT22;276;48.392;9.950;2023-04-24T06:04:18;12.70;99.90
580;DHT22;276;48.392;9.950;2023-04-24T06:06:44;12.70;99.90
580;DHT22;276;48.392;9.950;2023-04-24T06:09:10;12.70;99.90
580;DHT22;276;48.392;9.950;2023-04-24T06:11:35;12.80;99.90
580;DHT22;276;48.392;9.950;2023-04-24T06:14:03;12.80;99.90
580;DHT22;276;48.392;9.950;2023-04-24T06:16:31;12.80;99.90
580;DHT22;276;48.392;9.950;2023-04-24T06:18:59;12.90;99.90
580;DHT22;276;48.392;9.950;2023-04-24T06:21:27;12.90;99.90
580;DHT22;276;48.392;9.950;2023-04-24T06:23:53;12.90;99.90
580;DHT22;276;48.392;9.950;2023-04-24T06:26:21;12.90;99.90
580;DHT22;276;48.392;9.950;2023-04-24T06:28:50;13.00;99.90
580;DHT22;276;48.392;9.950;2023-04-24T06:31:16;13.00;99.90
580;DHT22;276;48.392;9.950;2023-04-24T06:33:42;13.00;99.90
580;DHT22;276;48.392;9.950;2023-04-24T06:36:08;13.00;99.90
580;DHT22;276;48.392;9.950;2023-04-24T06:38:34;12.90;99.90
580;DHT22;276;48.392;9.950;2023-04-24T06:41:01;12.90;99.90
580;DHT22;276;48.392;9.950;2023-04-24T06:43:28;12.90;99.90
580;DHT22;276;48.392;9.950;2023-04-24T06:45:54;12.90;99.90
580;DHT22;276;48.392;9.950;2023-04-24T06:48:19;12.90;99.90
580;DHT22;276;48.392;9.950;2023-04-24T06:50:47;12.90;99.90
580;DHT22;276;48.392;9.950;2023-04-24T06:53:13;12.90;99.90
580;DHT22;276;48.392;9.950;2023-04-24T06:55:39;12.80;99.90
580;DHT22;276;48.392;9.950;2023-04-24T06:58:05;12.90;99.90
580;DHT22;276;48.392;9.950;2023-04-24T07:00:31;12.90;99.90
580;DHT22;276;48.392;9.950;2023-04-24T07:02:57;12.90;99.90
580;DHT22;276;48.392;9.950;2023-04-24T07:05:22;13.00;99.90
580;DHT22;276;48.392;9.950;2023-04-24T07:07:50;13.00;99.90
580;DHT22;276;48.392;9.950;2023-04-24T07:10:16;13.10;99.90
580;DHT22;276;48.392;9.950;2023-04-24T07:12:44;13.00;99.90
580;DHT22;276;48.392;9.950;2023-04-24T07:15:10;13.00;99.90
580;DHT22;276;48.392;9.950;2023-04-24T07:17:36;13.00;99.90
580;DHT22;276;48.392;9.950;2023-04-24T07:20:06;13.10;99.90
580;DHT22;276;48.392;9.950;2023-04-24T07:22:36;13.20;99.90
580;DHT22;276;48.392;9.950;2023-04-24T07:25:05;13.20;99.90
580;DHT22;276;48.392;9.950;2023-04-24T07:27:31;13.30;99.90
580;DHT22;276;48.392;9.950;2023-04-24T07:29:56;13.40;99.90
580;DHT22;276;48.392;9.950;2023-04-24T07:32:22;13.50;99.90
580;DHT22;276;48.392;9.950;2023-04-24T07:34:50;13.50;99.90
580;DHT22;276;48.392;9.950;2023-04-24T07:37:15;13.50;99.90
580;DHT22;276;48.392;9.950;2023-04-24T07:39:43;13.50;99.90
580;DHT22;276;48.392;9.950;2023-04-24T07:42:09;13.60;99.90
580;DHT22;276;48.392;9.950;2023-04-24T07:44:35;13.60;99.90
580;DHT22;276;48.392;9.950;2023-04-24T07:47:01;13.60;99.90
580;DHT22;276;48.392;9.950;2023-04-24T07:49:29;13.70;99.90
580;DHT22;276;48.392;9.950;2023-04-24T07:51:54;13.80;99.90
580;DHT22;276;48.392;9.950;2023-04-24T08:23:36;14.30;99.90
580;DHT22;276;48.392;9.950;2023-04-24T08:26:01;14.30;99.90
580;DHT22;276;48.392;9.950;2023-04-24T08:55:15;14.90;99.90
580;DHT22;276;48.392;9.950;2023-04-24T08:57:45;14.70;99.90
580;DHT22;276;48.392;9.950;2023-04-24T09:00:11;14.60;99.90
580;DHT22;276;48.392;9.950;2023-04-24T09:02:41;14.60;99.90
580;DHT22;276;48.392;9.950;2023-04-24T09:05:08;14.60;99.90
580;DHT22;276;48.392;9.950;2023-04-24T09:07:39;14.50;99.90
580;DHT22;276;48.392;9.950;2023-04-24T09:10:11;14.60;99.90
580;DHT22;276;48.392;9.950;2023-04-24T09:12:41;14.60;99.90
580;DHT22;276;48.392;9.950;2023-04-24T09:15:12;14.60;99.90
580;DHT22;276;48.392;9.950;2023-04-24T09:17:38;14.60;99.90
580;DHT22;276;48.392;9.950;2023-04-24T09:20:04;14.50;99.90
580;DHT22;276;48.392;9.950;2023-04-24T09:22:33;14.50;99.90
580;DHT22;276;48.392;9.950;2023-04-24T09:25:09;14.60;99.90
580;DHT22;276;48.392;9.950;2023-04-24T09:27:37;14.70;99.90
580;DHT22;276;48.392;9.950;2023-04-24T09:30:11;14.80;99.90
580;DHT22;276;48.392;9.950;2023-04-24T09:32:40;14.90;99.90
580;DHT22;276;48.392;9.950;2023-04-24T09:37:36;15.00;99.90
580;DHT22;276;48.392;9.950;2023-04-24T09:40:13;15.10;99.90
580;DHT22;276;48.392;9.950;2023-04-24T09:42:41;15.10;99.90
580;DHT22;276;48.392;9.950;2023-04-24T09:45:09;15.10;99.90
580;DHT22;276;48.392;9.950;2023-04-24T09:47:38;15.20;99.70
580;DHT22;276;48.392;9.950;2023-04-24T09:50:17;15.20;99.00
580;DHT22;276;48.392;9.950;2023-04-24T09:52:44;15.20;98.80
580;DHT22;276;48.392;9.950;2023-04-24T09:55:20;15.30;98.80
580;DHT22;276;48.392;9.950;2023-04-24T09:57:52;15.40;98.80
580;DHT22;276;48.392;9.950;2023-04-24T10:00:29;15.50;97.90
580;DHT22;276;48.392;9.950;2023-04-24T10:03:03;15.60;98.00
580;DHT22;276;48.392;9.950;2023-04-24T10:05:33;15.80;98.50
580;DHT22;276;48.392;9.950;2023-04-24T10:08:08;15.90;98.50
580;DHT22;276;48.392;9.950;2023-04-24T10:10:38;16.00;97.70
580;DHT22;276;48.392;9.950;2023-04-24T10:13:07;16.20;97.60
580;DHT22;276;48.392;9.950;2023-04-24T10:15:34;16.20;96.10
580;DHT22;276;48.392;9.950;2023-04-24T10:18:00;16.20;96.80
580;DHT22;276;48.392;9.950;2023-04-24T10:20:28;16.20;96.30
580;DHT22;276;48.392;9.950;2023-04-24T10:22:57;16.30;95.30
580;DHT22;276;48.392;9.950;2023-04-24T10:25:33;16.30;96.10
580;DHT22;276;48.392;9.950;2023-04-24T10:28:02;16.30;95.00
580;DHT22;276;48.392;9.950;2023-04-24T10:30:30;16.40;94.20
580;DHT22;276;48.392;9.950;2023-04-24T10:32:56;16.40;93.80
580;DHT22;276;48.392;9.950;2023-04-24T10:35:22;16.50;94.30
580;DHT22;276;48.392;9.950;2023-04-24T10:37:56;16.50;93.60
580;DHT22;276;48.392;9.950;2023-04-24T10:40:27;16.60;94.20
580;DHT22;276;48.392;9.950;2023-04-24T10:42:56;16.70;92.70
580;DHT22;276;48.392;9.950;2023-04-24T10:45:23;16.70;92.60
580;DHT22;276;48.392;9.950;2023-04-24T10:47:59;16.80;92.40
580;DHT22;276;48.392;9.950;2023-04-24T10:53:23;16.80;92.40
580;DHT22;276;48.392;9.950;2023-04-24T10:55:51;16.70;93.00
580;DHT22;276;48.392;9.950;2023-04-24T10:58:24;16.60;93.50
580;DHT22;276;48.392;9.950;2023-04-24T11:00:57;16.50;94.00
580;DHT22;276;48.392;9.950;2023-04-24T11:05:55;16.50;95.20
580;DHT22;276;48.392;9.950;2023-04-24T11:11:07;16.60;94.70
580;DHT22;276;48.392;9.950;2023-04-24T11:21:48;17.00;94.20
580;DHT22;276;48.392;9.950;2023-04-24T11:30:00;17.20;92.40
580;DHT22;276;48.392;9.950;2023-04-24T11:35:02;17.00;91.70
580;DHT22;276;48.392;9.950;2023-04-24T11:37:33;17.00;91.30
580;DHT22;276;48.392;9.950;2023-04-24T11:40:05;16.70;90.80
580;DHT22;276;48.392;9.950;2023-04-24T11:42:44;16.60;91.10
580;DHT22;276;48.392;9.950;2023-04-24T11:45:22;16.30;91.30
580;DHT22;276;48.392;9.950;2023-04-24T11:47:48;16.10;91.10
580;DHT22;276;48.392;9.950;2023-04-24T11:50:15;15.90;91.50
580;DHT22;276;48.392;9.950;2023-04-24T11:52:48;15.80;92.00
580;DHT22;276;48.392;9.950;2023-04-24T11:57:47;15.70;92.30
580;DHT22;276;48.392;9.950;2023-04-24T12:00:17;15.80;92.00
580;DHT22;276;48.392;9.950;2023-04-24T12:02:43;15.90;90.40
580;DHT22;276;48.392;9.950;2023-04-24T12:05:22;15.90;90.10
580;DHT22;276;48.392;9.950;2023-04-24T12:07:48;15.90;90.00
580;DHT22;276;48.392;9.950;2023-04-24T12:10:19;16.00;89.40
580;DHT22;276;48.392;9.950;2023-04-24T12:12:45;16.00;90.30
580;DHT22;276;48.392;9.950;2023-04-24T12:15:11;16.10;89.90
580;DHT22;276;48.392;9.950;2023-04-24T12:17:41;16.10;90.20
580;DHT22;276;48.392;9.950;2023-04-24T12:20:10;16.30;91.00
580;DHT22;276;48.392;9.950;2023-04-24T12:22:53;16.40;90.30
580;DHT22;276;48.392;9.950;2023-04-24T12:25:21;16.30;89.30
580;DHT22;276;48.392;9.950;2023-04-24T12:28:08;16.30;89.10
580;DHT22;276;48.392;9.950;2023-04-24T12:30:46;16.20;88.70
580;DHT22;276;48.392;9.950;2023-04-24T12:33:17;16.20;90.10
580;DHT22;276;48.392;9.950;2023-04-24T12:35:43;16.20;88.60
580;DHT22;276;48.392;9.950;2023-04-24T12:38:13;16.20;88.80
580;DHT22;276;48.392;9.950;2023-04-24T12:40:41;16.30;88.20
580;DHT22;276;48.392;9.950;2023-04-24T12:43:20;16.30;86.50
580;DHT22;276;48.392;9.950;2023-04-24T12:45:48;16.30;86.70
580;DHT22;276;48.392;9.950;2023-04-24T12:48:16;16.20;87.10
580;DHT22;276;48.392;9.950;2023-04-24T12:50:43;16.20;87.60
580;DHT22;276;48.392;9.950;2023-04-24T12:53:09;16.10;86.70
580;DHT22;276;48.392;9.950;2023-04-24T12:55:35;16.00;87.40
580;DHT22;276;48.392;9.950;2023-04-24T12:58:03;16.00;87.20
580;DHT22;276;48.392;9.950;2023-04-24T13:00:29;16.00;86.10
580;DHT22;276;48.392;9.950;2023-04-24T13:02:57;15.90;85.90
580;DHT22;276;48.392;9.950;2023-04-24T13:05:22;15.80;86.60
580;DHT22;276;48.392;9.950;2023-04-24T13:07:48;15.80;87.90
580;DHT22;276;48.392;9.950;2023-04-24T13:10:13;15.80;89.00
580;DHT22;276;48.392;9.950;2023-04-24T13:12:39;15.80;89.40
580;DHT22;276;48.392;9.950;2023-04-24T13:15:06;15.90;89.20
580;DHT22;276;48.392;9.950;2023-04-24T13:17:32;15.80;89.40
580;DHT22;276;48.392;9.950;2023-04-24T13:19:58;15.70;89.20
580;DHT22;276;48.392;9.950;2023-04-24T13:22:24;15.60;88.50
580;DHT22;276;48.392;9.950;2023-04-24T13:24:50;15.60;89.10
580;DHT22;276;48.392;9.950;2023-04-24T13:27:16;15.60;89.60
580;DHT22;276;48.392;9.950;2023-04-24T13:29:42;15.50;87.40
580;DHT22;276;48.392;9.950;2023-04-24T13:32:08;15.50;88.80
580;DHT22;276;48.392;9.950;2023-04-24T13:34:34;15.50;90.00
580;DHT22;276;48.392;9.950;2023-04-24T13:37:00;15.50;89.80
580;DHT22;276;48.392;9.950;2023-04-24T13:39:29;15.50;89.70
580;DHT22;276;48.392;9.950;2023-04-24T13:41:55;15.40;89.00
580;DHT22;276;48.392;9.950;2023-04-24T13:44:23;15.30;88.10
580;DHT22;276;48.392;9.950;2023-04-24T13:46:50;15.20;88.60
580;DHT22;276;48.392;9.950;2023-04-24T13:49:22;15.30;89.20
580;DHT22;276;48.392;9.950;2023-04-24T13:51:50;15.30;89.60
580;DHT22;276;48.392;9.950;2023-04-24T13:54:15;15.40;90.00
580;DHT22;276;48.392;9.950;2023-04-24T13:56:45;15.40;88.70
580;DHT22;276;48.392;9.950;2023-04-24T13:59:13;15.40;88.10
580;DHT22;276;48.392;9.950;2023-04-24T14:01:42;15.40;87.70
580;DHT22;276;48.392;9.950;2023-04-24T14:04:10;15.40;88.80
580;DHT22;276;48.392;9.950;2023-04-24T14:06:38;15.50;88.50
580;DHT22;276;48.392;9.950;2023-04-24T14:09:04;15.50;87.00
580;DHT22;276;48.392;9.950;2023-04-24T14:11:29;15.40;87.10
580;DHT22;276;48.392;9.950;2023-04-24T14:13:55;15.30;86.90
580;DHT22;276;48.392;9.950;2023-04-24T14:16:26;15.30;87.40
580;DHT22;276;48.392;9.950;2023-04-24T14:18:51;15.30;86.40
580;DHT22;276;48.392;9.950;2023-04-24T14:21:19;15.20;85.90
580;DHT22;276;48.392;9.950;2023-04-24T14:23:45;15.20;86.60
580;DHT22;276;48.392;9.950;2023-04-24T14:26:10;15.20;86.60
580;DHT22;276;48.392;9.950;2023-04-24T14:28:38;15.20;85.60
580;DHT22;276;48.392;9.950;2023-04-24T14:31:05;15.20;85.20
580;DHT22;276;48.392;9.950;2023-04-24T14:33:33;15.20;85.70
580;DHT22;276;48.392;9.950;2023-04-24T14:35:59;15.30;85.70
580;DHT22;276;48.392;9.950;2023-04-24T14:38:26;15.40;86.00
580;DHT22;276;48.392;9.950;2023-04-24T14:40:57;15.40;84.80
580;DHT22;276;48.392;9.950;2023-04-24T14:43:23;15.40;84.10
580;DHT22;276;48.392;9.950;2023-04-24T14:45:51;15.40;85.00
580;DHT22;276;48.392;9.950;2023-04-24T14:48:17;15.40;84.20
580;DHT22;276;48.392;9.950;2023-04-24T14:50:47;15.40;84.80
580;DHT22;276;48.392;9.950;2023-04-24T14:53:14;15.40;86.20
580;DHT22;276;48.392;9.950;2023-04-24T14:55:42;15.40;86.20
580;DHT22;276;48.392;9.950;2023-04-24T14:58:07;15.50;86.20
580;DHT22;276;48.392;9.950;2023-04-24T15:00:33;15.50;85.50
580;DHT22;276;48.392;9.950;2023-04-24T15:03:00;15.60;85.90
580;DHT22;276;48.392;9.950;2023-04-24T15:05:28;15.70;86.70
580;DHT22;276;48.392;9.950;2023-04-24T15:07:56;15.80;86.60
580;DHT22;276;48.392;9.950;2023-04-24T15:10:22;15.80;85.60
580;DHT22;276;48.392;9.950;2023-04-24T15:12:51;15.80;85.70
580;DHT22;276;48.392;9.950;2023-04-24T15:15:17;15.90;86.10
580;DHT22;276;48.392;9.950;2023-04-24T15:17:47;15.90;86.10
580;DHT22;276;48.392;9.950;2023-04-24T15:20:17;15.90;85.60
580;DHT22;276;48.392;9.950;2023-04-24T15:22:45;15.90;85.80
580;DHT22;276;48.392;9.950;2023-04-24T15:25:11;15.80;85.20
580;DHT22;276;48.392;9.950;2023-04-24T15:27:45;15.90;85.30
580;DHT22;276;48.392;9.950;2023-04-24T15:30:11;15.80;83.30
580;DHT22;276;48.392;9.950;2023-04-24T15:32:37;15.80;82.70
580;DHT22;276;48.392;9.950;2023-04-24T15:35:03;15.70;80.50
580;DHT22;276;48.392;9.950;2023-04-24T15:37:29;15.50;80.70
580;DHT22;276;48.392;9.950;2023-04-24T15:39:54;15.50;81.00
580;DHT22;276;48.392;9.950;2023-04-24T15:42:20;15.50;82.00
580;DHT22;276;48.392;9.950;2023-04-24T15:44:46;15.50;83.10
580;DHT22;276;48.392;9.950;2023-04-24T15:47:12;15.50;83.30
580;DHT22;276;48.392;9.950;2023-04-24T15:49:39;15.50;83.50
580;DHT22;276;48.392;9.950;2023-04-24T15:52:07;15.50;83.60
580;DHT22;276;48.392;9.950;2023-04-24T15:54:35;15.40;83.40
580;DHT22;276;48.392;9.950;2023-04-24T15:57:03;15.40;84.00
580;DHT22;276;48.392;9.950;2023-04-24T15:59:29;15.40;84.20
580;DHT22;276;48.392;9.950;2023-04-24T16:01:56;15.40;84.00
580;DHT22;276;48.392;9.950;2023-04-24T16:04:22;15.40;84.00
580;DHT22;276;48.392;9.950;2023-04-24T16:06:52;15.50;84.30
580;DHT22;276;48.392;9.950;2023-04-24T16:09:20;15.50;85.20
580;DHT22;276;48.392;9.950;2023-04-24T16:11:46;15.50;84.90
580;DHT22;276;48.392;9.950;2023-04-24T16:14:14;15.50;84.80
580;DHT22;276;48.392;9.950;2023-04-24T16:16:40;15.50;84.40
580;DHT22;276;48.392;9.950;2023-04-24T16:19:08;15.50;82.70
580;DHT22;276;48.392;9.950;2023-04-24T16:21:33;15.40;83.10
580;DHT22;276;48.392;9.950;2023-04-24T16:24:01;15.40;83.70
580;DHT22;276;48.392;9.950;2023-04-24T16:26:27;15.40;84.10
580;DHT22;276;48.392;9.950;2023-04-24T16:28:55;15.40;84.30
580;DHT22;276;48.392;9.950;2023-04-24T16:31:22;15.50;84.70
580;DHT22;276;48.392;9.950;2023-04-24T16:33:48;15.50;84.60
580;DHT22;276;48.392;9.950;2023-04-24T16:36:16;15.50;84.10
580;DHT22;276;48.392;9.950;2023-04-24T16:38:41;15.50;84.60
580;DHT22;276;48.392;9.950;2023-04-24T16:41:09;15.50;85.40
580;DHT22;276;48.392;9.950;2023-04-24T16:43:35;15.50;85.40
580;DHT22;276;48.392;9.950;2023-04-24T16:46:01;15.50;85.70
580;DHT22;276;48.392;9.950;2023-04-24T16:48:31;15.50;85.80
580;DHT22;276;48.392;9.950;2023-04-24T16:50:59;15.50;86.20
580;DHT22;276;48.392;9.950;2023-04-24T16:53:25;15.40;86.10
580;DHT22;276;48.392;9.950;2023-04-24T16:55:53;15.40;86.20
580;DHT22;276;48.392;9.950;2023-04-24T16:58:20;15.40;86.50
580;DHT22;276;48.392;9.950;2023-04-24T17:00:46;15.30;85.40
580;DHT22;276;48.392;9.950;2023-04-24T17:03:13;15.40;84.90
580;DHT22;276;48.392;9.950;2023-04-24T17:05:38;15.30;84.70
580;DHT22;276;48.392;9.950;2023-04-24T17:08:04;15.30;84.80
580;DHT22;276;48.392;9.950;2023-04-24T17:10:30;15.30;84.80
580;DHT22;276;48.392;9.950;2023-04-24T17:12:55;15.20;84.90
580;DHT22;276;48.392;9.950;2023-04-24T17:15:21;15.20;84.30
580;DHT22;276;48.392;9.950;2023-04-24T17:17:48;15.10;84.20
580;DHT22;276;48.392;9.950;2023-04-24T17:20:16;15.10;83.90
580;DHT22;276;48.392;9.950;2023-04-24T17:22:44;15.10;84.90
580;DHT22;276;48.392;9.950;2023-04-24T17:25:10;15.00;84.70
580;DHT22;276;48.392;9.950;2023-04-24T17:27:36;15.00;83.70
580;DHT22;276;48.392;9.950;2023-04-24T17:30:07;15.00;84.10
580;DHT22;276;48.392;9.950;2023-04-24T17:32:33;15.00;83.70
580;DHT22;276;48.392;9.950;2023-04-24T17:34:58;15.00;84.00
580;DHT22;276;48.392;9.950;2023-04-24T17:37:24;15.00;84.20
580;DHT22;276;48.392;9.950;2023-04-24T17:39:50;15.00;84.20
580;DHT22;276;48.392;9.950;2023-04-24T17:42:16;14.90;84.10
580;DHT22;276;48.392;9.950;2023-04-24T17:44:41;14.90;83.60
580;DHT22;276;48.392;9.950;2023-04-24T17:47:07;14.80;83.60
580;DHT22;276;48.392;9.950;2023-04-24T17:49:32;14.80;83.80
580;DHT22;276;48.392;9.950;2023-04-24T17:52:00;14.70;83.90
580;DHT22;276;48.392;9.950;2023-04-24T17:54:31;14.80;84.00
580;DHT22;276;48.392;9.950;2023-04-24T17:56:57;14.70;84.10
580;DHT22;276;48.392;9.950;2023-04-24T17:59:22;14.70;84.30
580;DHT22;276;48.392;9.950;2023-04-24T18:01:48;14.70;84.30
580;DHT22;276;48.392;9.950;2023-04-24T18:04:14;14.70;84.30